| time (UTC) | temp C | wind direction | speed KPH | gust KPH | rain 1hr cm | rain 24hr cm | rain mn cm | humidity % | barometer mb |
| 20260506231523 | 13 | 193 | 0.0 | 6.4 | 0.08 | 0.30 | 0.30 | 93 | 1006.3 |
| 20260506231008 | 13 | 202 | 3.2 | 6.4 | 0.05 | 0.28 | 0.28 | 93 | 1006.3 |
| 20260506230515 | 13 | 178 | 1.6 | 11.3 | 0.05 | 0.25 | 0.25 | 93 | 1006.3 |
| 20260506230048 | 13 | 182 | 3.2 | 11.3 | 0.05 | 0.25 | 0.25 | 93 | 1006.3 |
| 20260506225509 | 13 | 171 | 3.2 | 8.0 | 0.05 | 0.25 | 0.25 | 93 | 1006.4 |
| 20260506225011 | 13 | 242 | 1.6 | 6.4 | 0.05 | 0.25 | 0.25 | 93 | 1006.4 |
| 20260506224526 | 13 | 175 | 1.6 | 6.4 | 0.03 | 0.23 | 0.23 | 93 | 1006.4 |
| 20260506224009 | 14 | 224 | 1.6 | 9.7 | 0.03 | 0.23 | 0.23 | 93 | 1006.4 |
| 20260506223507 | 14 | 192 | 1.6 | 9.7 | 0.03 | 0.23 | 0.23 | 93 | 1006.4 |
| 20260506223031 | 14 | 224 | 1.6 | 6.4 | 0.05 | 0.23 | 0.23 | 93 | 1006.4 |
| 20260506222513 | 14 | 238 | 3.2 | 6.4 | 0.05 | 0.23 | 0.23 | 93 | 1006.5 |
| 20260506222015 | 14 | 182 | 1.6 | 9.7 | 0.05 | 0.23 | 0.23 | 93 | 1006.6 |
| 20260506221522 | 14 | 76 | 1.6 | 9.7 | 0.05 | 0.23 | 0.23 | 92 | 1006.5 |
| 20260506221010 | 14 | 267 | 1.6 | 12.9 | 0.05 | 0.23 | 0.23 | 92 | 1006.5 |
| 20260506220507 | 14 | 137 | 3.2 | 12.9 | 0.03 | 0.20 | 0.20 | 92 | 1006.6 |
| 20260506220033 | 14 | 165 | 3.2 | 11.3 | 0.03 | 0.20 | 0.20 | 92 | 1006.7 |
| 20260506215510 | 14 | 131 | 1.6 | 9.7 | 0.03 | 0.20 | 0.20 | 92 | 1006.8 |
| 20260506215009 | 14 | 187 | 1.6 | 8.0 | 0.03 | 0.20 | 0.20 | 92 | 1006.7 |
| 20260506214525 | 14 | 168 | 1.6 | 16.1 | 0.05 | 0.20 | 0.20 | 92 | 1006.7 |
| 20260506214009 | 14 | 182 | 3.2 | 16.1 | 0.05 | 0.20 | 0.20 | 92 | 1006.7 |
| 20260506213515 | 14 | 318 | 0.0 | 6.4 | 0.05 | 0.20 | 0.20 | 92 | 1006.7 |
| 20260506213028 | 14 | 238 | 1.6 | 9.7 | 0.03 | 0.18 | 0.18 | 92 | 1006.8 |
| 20260506212510 | 14 | 103 | 3.2 | 9.7 | 0.03 | 0.18 | 0.18 | 92 | 1006.9 |
| 20260506212016 | 14 | 180 | 3.2 | 11.3 | 0.03 | 0.18 | 0.18 | 92 | 1007.0 |
| 20260506211528 | 14 | 350 | 1.6 | 14.5 | 0.03 | 0.18 | 0.18 | 92 | 1007.0 |
| 20260506211010 | 14 | 188 | 4.8 | 14.5 | 0.03 | 0.18 | 0.18 | 92 | 1007.1 |
| 20260506210515 | 15 | 194 | 1.6 | 9.7 | 0.03 | 0.18 | 0.18 | 92 | 1007.1 |
| 20260506210044 | 14 | 193 | 1.6 | 11.3 | 0.03 | 0.18 | 0.18 | 92 | 1007.1 |
| 20260506205509 | 14 | 158 | 1.6 | 11.3 | 0.03 | 0.18 | 0.18 | 91 | 1007.1 |
| 20260506205003 | 14 | 219 | 1.6 | 11.3 | 0.03 | 0.18 | 0.18 | 91 | 1007.2 |
| 20260506204505 | 14 | 141 | 3.2 | 11.3 | 0.00 | 0.15 | 0.15 | 91 | 1007.3 |
| 20260506204004 | 14 | 273 | 3.2 | 11.3 | 0.00 | 0.15 | 0.15 | 91 | 1007.3 |
| 20260506203503 | 14 | 323 | 1.6 | 11.3 | 0.00 | 0.15 | 0.15 | 91 | 1007.3 |
| 20260506203011 | 14 | 165 | 3.2 | 11.3 | 0.00 | 0.15 | 0.15 | 91 | 1007.3 |
| 20260506202503 | 14 | 179 | 1.6 | 14.5 | 0.00 | 0.15 | 0.15 | 91 | 1007.3 |
| 20260506202007 | 14 | 188 | 3.2 | 14.5 | 0.03 | 0.15 | 0.15 | 91 | 1007.3 |
| 20260506201519 | 14 | 225 | 4.8 | 14.5 | 0.05 | 0.15 | 0.15 | 91 | 1007.5 |
| 20260506201004 | 14 | 126 | 1.6 | 11.3 | 0.05 | 0.15 | 0.15 | 91 | 1007.4 |
| 20260506200504 | 14 | 161 | 3.2 | 9.7 | 0.08 | 0.15 | 0.15 | 91 | 1007.5 |
| 20260506200012 | 14 | 223 | 1.6 | 8.0 | 0.08 | 0.15 | 0.15 | 91 | 1007.6 |
| 20260506195504 | 14 | 54 | 1.6 | 9.7 | 0.10 | 0.15 | 0.15 | 91 | 1007.6 |
| 20260506195005 | 14 | 188 | 3.2 | 6.4 | 0.10 | 0.15 | 0.15 | 91 | 1007.6 |
| 20260506194511 | 14 | 100 | 1.6 | 6.4 | 0.13 | 0.15 | 0.15 | 90 | 1007.6 |
| 20260506194007 | 15 | 182 | 3.2 | 9.7 | 0.13 | 0.15 | 0.15 | 90 | 1007.6 |
| 20260506193504 | 15 | 218 | 1.6 | 9.7 | 0.15 | 0.15 | 0.15 | 90 | 1007.7 |
| 20260506193021 | 15 | 174 | 3.2 | 8.0 | 0.15 | 0.15 | 0.15 | 90 | 1007.7 |
| 20260506192503 | 15 | 207 | 3.2 | 9.7 | 0.15 | 0.15 | 0.15 | 90 | 1007.7 |
| 20260506192006 | 15 | 231 | 3.2 | 9.7 | 0.13 | 0.13 | 0.13 | 89 | 1007.7 |
| 20260506191512 | 15 | 263 | 1.6 | 9.7 | 0.10 | 0.10 | 0.10 | 90 | 1007.6 |
| 20260506191004 | 15 | 119 | 0.0 | 6.4 | 0.10 | 0.10 | 0.10 | 89 | 1007.7 |
| 20260506190509 | 15 | 189 | 1.6 | 6.4 | 0.08 | 0.08 | 0.08 | 88 | 1007.7 |
| 20260506190014 | 15 | 187 | 1.6 | 8.0 | 0.08 | 0.08 | 0.08 | 88 | 1007.8 |
| 20260506185505 | 15 | 165 | 1.6 | 8.0 | 0.05 | 0.05 | 0.05 | 87 | 1007.9 |
| 20260506185004 | 16 | 175 | 1.6 | 11.3 | 0.05 | 0.05 | 0.05 | 86 | 1007.8 |
| 20260506184511 | 16 | 300 | 3.2 | 11.3 | 0.03 | 0.03 | 0.03 | 85 | 1007.8 |
| 20260506184005 | 16 | 152 | 0.0 | 6.4 | 0.03 | 0.03 | 0.03 | 85 | 1007.9 |
| 20260506183507 | 16 | 171 | 0.0 | 6.4 | 0.00 | 0.00 | 0.00 | 84 | 1008.0 |
| 20260506183011 | 16 | 179 | 1.6 | 6.4 | 0.00 | 0.00 | 0.00 | 82 | 1008.1 |
| 20260506182508 | 17 | 142 | 1.6 | 8.0 | 0.00 | 0.00 | 0.00 | 81 | 1008.1 |
| 20260506182005 | 17 | 248 | 3.2 | 12.9 | 0.00 | 0.00 | 0.00 | 79 | 1008.2 |
| 20260506181512 | 17 | 210 | 3.2 | 12.9 | 0.00 | 0.00 | 0.00 | 78 | 1008.3 |
| 20260506181004 | 17 | 256 | 1.6 | 17.7 | 0.00 | 0.00 | 0.00 | 78 | 1008.3 |
| 20260506180504 | 17 | 190 | 1.6 | 17.7 | 0.00 | 0.00 | 0.00 | 77 | 1008.3 |
| 20260506180014 | 18 | 277 | 3.2 | 12.9 | 0.00 | 0.00 | 0.00 | 74 | 1008.4 |
| 20260506175505 | 18 | 192 | 3.2 | 12.9 | 0.00 | 0.00 | 0.00 | 72 | 1008.4 |
| 20260506175005 | 18 | 209 | 6.4 | 11.3 | 0.00 | 0.00 | 0.00 | 70 | 1008.4 |
| 20260506174514 | 19 | 197 | 4.8 | 12.9 | 0.00 | 0.00 | 0.00 | 68 | 1008.5 |
| 20260506174002 | 20 | 220 | 4.8 | 17.7 | 0.00 | 0.00 | 0.00 | 64 | 1008.5 |
| 20260506173504 | 20 | 250 | 6.4 | 17.7 | 0.00 | 0.00 | 0.00 | 62 | 1008.4 |
| 20260506173008 | 20 | 203 | 4.8 | 12.9 | 0.00 | 0.00 | 0.00 | 60 | 1008.3 |
| 20260506172502 | 21 | 204 | 4.8 | 17.7 | 0.00 | 0.00 | 0.00 | 59 | 1008.4 |
| 20260506172005 | 21 | 209 | 3.2 | 17.7 | 0.00 | 0.00 | 0.00 | 60 | 1008.4 |
| 20260506171510 | 21 | 232 | 4.8 | 22.5 | 0.00 | 0.00 | 0.00 | 59 | 1008.3 |
| 20260506171008 | 21 | 325 | 3.2 | 22.5 | 0.00 | 0.00 | 0.00 | 58 | 1008.2 |
| 20260506170505 | 21 | 279 | 4.8 | 16.1 | 0.00 | 0.00 | 0.00 | 58 | 1008.2 |
| 20260506170025 | 21 | 262 | 3.2 | 16.1 | 0.00 | 0.00 | 0.00 | 57 | 1008.3 |
| 20260506165505 | 22 | 153 | 3.2 | 12.9 | 0.00 | 0.00 | 0.00 | 57 | 1008.3 |
| 20260506165007 | 22 | 106 | 3.2 | 12.9 | 0.00 | 0.00 | 0.00 | 56 | 1008.3 |
| 20260506164535 | 22 | 225 | 3.2 | 19.3 | 0.00 | 0.00 | 0.00 | 54 | 1008.4 |
| 20260506164005 | 22 | 239 | 8.0 | 19.3 | 0.00 | 0.00 | 0.00 | 55 | 1008.5 |
| 20260506163504 | 22 | 123 | 3.2 | 19.3 | 0.00 | 0.00 | 0.00 | 59 | 1008.5 |
| 20260506163019 | 21 | 211 | 4.8 | 19.3 | 0.00 | 0.00 | 0.00 | 59 | 1008.7 |
| 20260506162508 | 21 | 156 | 3.2 | 14.5 | 0.00 | 0.00 | 0.00 | 58 | 1008.7 |
| 20260506162001 | 21 | 173 | 3.2 | 14.5 | 0.00 | 0.00 | 0.00 | 58 | 1008.8 |
| 20260506161511 | 21 | 269 | 4.8 | 12.9 | 0.00 | 0.00 | 0.00 | 58 | 1008.8 |
| 20260506161005 | 21 | 213 | 4.8 | 14.5 | 0.00 | 0.00 | 0.00 | 58 | 1009.0 |
| 20260506160506 | 21 | 213 | 6.4 | 19.3 | 0.00 | 0.00 | 0.00 | 58 | 1009.1 |
| 20260506160013 | 21 | 294 | 6.4 | 19.3 | 0.00 | 0.00 | 0.00 | 58 | 1008.9 |
| 20260506155504 | 21 | 217 | 6.4 | 17.7 | 0.00 | 0.00 | 0.00 | 58 | 1009.1 |
| 20260506155007 | 21 | 304 | 3.2 | 16.1 | 0.00 | 0.00 | 0.00 | 60 | 1009.1 |
| 20260506154521 | 21 | 187 | 6.4 | 12.9 | 0.00 | 0.00 | 0.00 | 58 | 1009.2 |
| 20260506154008 | 21 | 182 | 1.6 | 14.5 | 0.00 | 0.00 | 0.00 | 60 | 1009.3 |
| 20260506153507 | 21 | 304 | 3.2 | 19.3 | 0.00 | 0.00 | 0.00 | 60 | 1009.4 |
| 20260506153020 | 20 | 140 | 4.8 | 19.3 | 0.00 | 0.00 | 0.00 | 61 | 1009.4 |
| 20260506152505 | 20 | 95 | 3.2 | 14.5 | 0.00 | 0.00 | 0.00 | 63 | 1009.5 |
| 20260506152009 | 20 | 192 | 4.8 | 12.9 | 0.00 | 0.00 | 0.00 | 62 | 1009.7 |
| 20260506151508 | 20 | 231 | 6.4 | 12.9 | 0.00 | 0.00 | 0.00 | 61 | 1009.7 |
| 20260506151001 | 20 | 182 | 3.2 | 9.7 | 0.00 | 0.00 | 0.00 | 62 | 1009.8 |
| 20260506150504 | 21 | 214 | 3.2 | 14.5 | 0.00 | 0.00 | 0.00 | 62 | 1009.8 |
| 20260506150012 | 20 | 210 | 6.4 | 14.5 | 0.00 | 0.00 | 0.00 | 63 | 1009.8 |
| 20260506145505 | 20 | 259 | 4.8 | 12.9 | 0.00 | 0.00 | 0.00 | 64 | 1009.9 |
| 20260506145008 | 20 | 247 | 1.6 | 12.9 | 0.00 | 0.00 | 0.00 | 65 | 1010.0 |
| 20260506144523 | 20 | 249 | 4.8 | 11.3 | 0.00 | 0.00 | 0.00 | 65 | 1009.9 |
| 20260506144008 | 20 | 218 | 1.6 | 11.3 | 0.00 | 0.00 | 0.00 | 65 | 1009.8 |
| 20260506143506 | 20 | 205 | 1.6 | 12.9 | 0.00 | 0.00 | 0.00 | 66 | 1010.0 |
| 20260506143024 | 19 | 98 | 4.8 | 12.9 | 0.00 | 0.00 | 0.00 | 65 | 1009.9 |
| 20260506142510 | 19 | 182 | 3.2 | 14.5 | 0.00 | 0.00 | 0.00 | 66 | 1009.9 |
| 20260506142009 | 19 | 248 | 4.8 | 14.5 | 0.00 | 0.00 | 0.00 | 67 | 1009.9 |
| 20260506141528 | 19 | 146 | 1.6 | 11.3 | 0.00 | 0.00 | 0.00 | 67 | 1009.8 |
| 20260506141011 | 19 | 81 | 3.2 | 11.3 | 0.00 | 0.00 | 0.00 | 66 | 1009.8 |
| 20260506140505 | 19 | 128 | 3.2 | 11.3 | 0.00 | 0.00 | 0.00 | 67 | 1009.8 |
| 20260506140011 | 19 | 138 | 1.6 | 6.4 | 0.00 | 0.00 | 0.00 | 67 | 1009.7 |
| 20260506135506 | 19 | 286 | 1.6 | 6.4 | 0.00 | 0.00 | 0.00 | 68 | 1009.7 |
| 20260506135003 | 19 | 198 | 1.6 | 6.4 | 0.00 | 0.00 | 0.00 | 70 | 1009.7 |
| 20260506134516 | 18 | 275 | 3.2 | 11.3 | 0.00 | 0.00 | 0.00 | 70 | 1009.8 |
| 20260506134006 | 18 | 198 | 3.2 | 11.3 | 0.00 | 0.00 | 0.00 | 73 | 1009.8 |
| 20260506133508 | 18 | 217 | 3.2 | 12.9 | 0.00 | 0.00 | 0.00 | 73 | 1009.8 |
| 20260506133019 | 17 | 137 | 4.8 | 12.9 | 0.00 | 0.00 | 0.00 | 74 | 1009.8 |
| 20260506132510 | 17 | 318 | 1.6 | 8.0 | 0.00 | 0.00 | 0.00 | 75 | 1009.9 |
| 20260506132007 | 17 | 243 | 3.2 | 9.7 | 0.00 | 0.00 | 0.00 | 75 | 1010.2 |
| 20260506131520 | 17 | 190 | 1.6 | 9.7 | 0.00 | 0.00 | 0.00 | 76 | 1010.3 |
| 20260506131006 | 16 | 301 | 1.6 | 11.3 | 0.00 | 0.00 | 0.00 | 77 | 1010.3 |
| 20260506130508 | 16 | 175 | 4.8 | 11.3 | 0.00 | 0.00 | 0.00 | 77 | 1010.4 |
| 20260506130024 | 16 | 267 | 3.2 | 11.3 | 0.00 | 0.00 | 0.00 | 77 | 1010.4 |
| 20260506125509 | 16 | 270 | 1.6 | 11.3 | 0.00 | 0.00 | 0.00 | 78 | 1010.4 |
| 20260506125002 | 16 | 189 | 4.8 | 11.3 | 0.00 | 0.00 | 0.00 | 77 | 1010.3 |
| 20260506124511 | 16 | 198 | 4.8 | 12.9 | 0.00 | 0.00 | 0.00 | 77 | 1010.2 |
| 20260506124006 | 16 | 163 | 1.6 | 12.9 | 0.00 | 0.00 | 0.00 | 77 | 1010.2 |
| 20260506123506 | 16 | 257 | 4.8 | 11.3 | 0.00 | 0.00 | 0.00 | 76 | 1010.3 |
| 20260506123020 | 16 | 205 | 3.2 | 6.4 | 0.00 | 0.00 | 0.00 | 78 | 1010.3 |
| 20260506122506 | 16 | 298 | 1.6 | 9.7 | 0.00 | 0.00 | 0.00 | 79 | 1010.3 |
| 20260506122012 | 16 | 241 | 3.2 | 9.7 | 0.00 | 0.00 | 0.00 | 79 | 1010.3 |
| 20260506121524 | 16 | 254 | 3.2 | 9.7 | 0.00 | 0.00 | 0.00 | 79 | 1010.6 |
| 20260506121009 | 16 | 183 | 3.2 | 9.7 | 0.00 | 0.00 | 0.00 | 79 | 1010.4 |
| 20260506120507 | 16 | 64 | 3.2 | 9.7 | 0.00 | 0.00 | 0.00 | 80 | 1010.3 |
| 20260506120043 | 15 | 291 | 4.8 | 9.7 | 0.00 | 0.00 | 0.00 | 80 | 1010.3 |
| 20260506115512 | 15 | 190 | 3.2 | 16.1 | 0.00 | 0.00 | 0.00 | 81 | 1010.2 |
| 20260506115007 | 15 | 162 | 4.8 | 16.1 | 0.00 | 0.00 | 0.00 | 81 | 1010.3 |
| 20260506114522 | 15 | 197 | 4.8 | 16.1 | 0.00 | 0.00 | 0.00 | 82 | 1010.3 |
| 20260506114005 | 15 | 251 | 3.2 | 11.3 | 0.00 | 0.00 | 0.00 | 82 | 1010.5 |
| 20260506113510 | 15 | 202 | 1.6 | 9.7 | 0.00 | 0.00 | 0.00 | 83 | 1010.6 |
| 20260506113016 | 14 | 276 | 3.2 | 11.3 | 0.00 | 0.00 | 0.00 | 82 | 1010.6 |
| 20260506112507 | 15 | 273 | 1.6 | 11.3 | 0.00 | 0.00 | 0.00 | 82 | 1010.5 |
| 20260506112007 | 15 | 265 | 4.8 | 9.7 | 0.00 | 0.00 | 0.00 | 82 | 1010.5 |
| 20260506111519 | 14 | 186 | 3.2 | 0.0 | 0.00 | 0.00 | 0.00 | 83 | 1011.0 |
| 20260506111007 | -17 | 0.0 | 0.0 | 0.00 | 0.00 | 0.00 | 1010.8 | ||
| 20260506110507 | -17 | 0.0 | 0.0 | 0.00 | 0.00 | 0.00 | 1010.7 | ||
| 20260506110025 | -17 | 0.0 | 0.0 | 0.00 | 0.00 | 0.00 | 1010.6 | ||
| 20260506105508 | -17 | 0.0 | 0.0 | 0.00 | 0.00 | 0.00 | 1010.7 | ||
| 20260506105006 | -17 | 0.0 | 0.0 | 0.00 | 0.00 | 0.00 | 1010.5 | ||
| 20260506104536 | -17 | 0.0 | 0.0 | 0.00 | 0.00 | 0.00 | 1010.6 | ||
| 20260506104011 | -17 | 0.0 | 0.0 | 0.00 | 0.00 | 0.00 | 1010.5 | ||
| 20260506103508 | -17 | 0.0 | 0.0 | 0.00 | 0.00 | 0.00 | 1010.4 | ||
| 20260506103036 | -17 | 0.0 | 0.0 | 0.00 | 0.00 | 0.00 | 1010.3 | ||
| 20260506102516 | -17 | 0.0 | 0.0 | 0.00 | 0.00 | 0.00 | 1010.3 | ||
| 20260506102010 | -17 | 0.0 | 0.0 | 0.00 | 0.00 | 0.00 | 1010.3 | ||
| 20260506101525 | -17 | 0.0 | 0.0 | 0.00 | 0.00 | 0.00 | 1010.3 | ||
| 20260506101009 | -17 | 0.0 | 0.0 | 0.00 | 0.00 | 0.00 | 1010.3 | ||
| 20260506100511 | -17 | 0.0 | 0.0 | 0.00 | 0.00 | 0.00 | 1010.3 | ||
| 20260506100027 | -17 | 0.0 | 0.0 | 0.00 | 0.00 | 0.00 | 1010.3 | ||
| 20260506095508 | -17 | 0.0 | 0.0 | 0.00 | 0.00 | 0.00 | 1010.3 | ||
| 20260506095009 | -17 | 0.0 | 0.0 | 0.00 | 0.00 | 0.00 | 1010.3 | ||
| 20260506094525 | -17 | 0.0 | 0.0 | 0.00 | 0.00 | 0.00 | 1010.2 | ||
| 20260506094012 | -17 | 0.0 | 0.0 | 0.00 | 0.00 | 0.00 | 1010.2 | ||
| 20260506093510 | -17 | 0.0 | 0.0 | 0.00 | 0.00 | 0.00 | 1010.2 | ||
| 20260506093024 | -17 | 0.0 | 0.0 | 0.00 | 0.00 | 0.00 | 1010.1 | ||
| 20260506092508 | -17 | 0.0 | 0.0 | 0.00 | 0.00 | 0.00 | 1010.0 | ||
| 20260506092009 | -17 | 0.0 | 0.0 | 0.00 | 0.00 | 0.00 | 1010.2 | ||
| 20260506091528 | -17 | 0.0 | 0.0 | 0.00 | 0.00 | 0.00 | 1010.2 | ||
| 20260506091007 | -17 | 0.0 | 0.0 | 0.00 | 0.00 | 0.00 | 1010.2 | ||
| 20260506090507 | -17 | 0.0 | 0.0 | 0.00 | 0.00 | 0.00 | 1010.3 | ||
| 20260506090028 | -17 | 0.0 | 0.0 | 0.00 | 0.00 | 0.00 | 1010.2 | ||
| 20260506085510 | -17 | 0.0 | 0.0 | 0.00 | 0.00 | 0.00 | 1010.2 | ||
| 20260506085008 | -17 | 0.0 | 0.0 | 0.00 | 0.00 | 0.00 | 1010.3 | ||
| 20260506084603 | -17 | 0.0 | 0.0 | 0.00 | 0.00 | 0.00 | 1010.2 | ||
| 20260506084012 | -17 | 0.0 | 0.0 | 0.00 | 0.00 | 0.00 | 1010.4 | ||
| 20260506083508 | -17 | 0.0 | 0.0 | 0.00 | 0.00 | 0.00 | 1010.3 | ||
| 20260506083017 | -17 | 0.0 | 0.0 | 0.00 | 0.00 | 0.00 | 1010.3 | ||
| 20260506082507 | -17 | 0.0 | 0.0 | 0.00 | 0.00 | 0.00 | 1010.3 | ||
| 20260506082011 | -17 | 0.0 | 0.0 | 0.00 | 0.00 | 0.00 | 1010.4 | ||
| 20260506081536 | -17 | 3.2 | 9.7 | 0.00 | 0.00 | 0.00 | 1010.4 | ||
| 20260506081008 | 13 | 207 | 3.2 | 9.7 | 0.00 | 0.00 | 0.00 | 81 | 1010.4 |
| 20260506080504 | 13 | 200 | 4.8 | 14.5 | 0.00 | 0.00 | 0.00 | 81 | 1010.2 |
| 20260506073505 | 14 | 191 | 4.8 | 14.5 | 0.00 | 0.00 | 0.00 | 79 | 1010.3 |
| 20260506073023 | 14 | 195 | 6.4 | 14.5 | 0.00 | 0.00 | 0.00 | 79 | 1010.4 |
| 20260506072502 | 14 | 184 | 4.8 | 12.9 | 0.00 | 0.00 | 0.00 | 79 | 1010.5 |
| 20260506072001 | 14 | 284 | 3.2 | 9.7 | 0.00 | 0.00 | 0.00 | 78 | 1010.3 |
| 20260506071511 | 15 | 205 | 4.8 | 11.3 | 0.00 | 0.00 | 0.00 | 78 | 1010.3 |
| 20260506071004 | 15 | 192 | 6.4 | 16.1 | 0.00 | 0.00 | 0.00 | 78 | 1010.3 |
| 20260506070504 | 15 | 244 | 4.8 | 16.1 | 0.00 | 0.00 | 0.00 | 78 | 1010.2 |
| 20260506062508 | 15 | 290 | 3.2 | 9.7 | 0.00 | 0.00 | 0.00 | 75 | 1009.9 |
| 20260506062010 | 15 | 183 | 3.2 | 9.7 | 0.00 | 0.00 | 0.00 | 75 | 1010.0 |
| 20260506061508 | 15 | 236 | 4.8 | 11.3 | 0.00 | 0.00 | 0.00 | 75 | 1010.0 |
| 20260506061004 | 15 | 230 | 4.8 | 11.3 | 0.00 | 0.00 | 0.00 | 74 | 1010.0 |
| 20260506060504 | 15 | 201 | 4.8 | 11.3 | 0.00 | 0.00 | 0.00 | 74 | 1010.0 |
| 20260506051010 | 16 | 232 | 4.8 | 14.5 | 0.00 | 0.00 | 0.00 | 71 | 1010.3 |
| 20260506050507 | 16 | 204 | 3.2 | 12.9 | 0.00 | 0.00 | 0.00 | 71 | 1010.3 |
| 20260506045005 | 16 | 242 | 4.8 | 12.9 | 0.00 | 0.00 | 0.00 | 70 | 1010.6 |
| 20260506044518 | 16 | 192 | 6.4 | 14.5 | 0.00 | 0.00 | 0.00 | 70 | 1010.4 |
| 20260506044006 | 16 | 263 | 4.8 | 16.1 | 0.00 | 0.00 | 0.00 | 69 | 1010.5 |
| 20260506043508 | 16 | 253 | 6.4 | 16.1 | 0.00 | 0.00 | 0.00 | 69 | 1010.6 |
| 20260506043020 | 16 | 205 | 4.8 | 19.3 | 0.00 | 0.00 | 0.00 | 69 | 1010.7 |
| 20260506042508 | 16 | 248 | 3.2 | 19.3 | 0.00 | 0.00 | 0.00 | 68 | 1010.7 |
| 20260506042008 | 16 | 227 | 6.4 | 16.1 | 0.00 | 0.00 | 0.00 | 68 | 1010.5 |
| 20260506041523 | 16 | 247 | 6.4 | 17.7 | 0.00 | 0.00 | 0.00 | 68 | 1010.7 |
| 20260506041009 | 16 | 234 | 4.8 | 17.7 | 0.00 | 0.00 | 0.00 | 68 | 1010.6 |
| 20260506040510 | 16 | 302 | 6.4 | 17.7 | 0.00 | 0.00 | 0.00 | 68 | 1010.6 |
| 20260506040034 | 16 | 182 | 4.8 | 16.1 | 0.00 | 0.00 | 0.00 | 68 | 1010.7 |
| 20260506035508 | 16 | 221 | 6.4 | 16.1 | 0.00 | 0.00 | 0.00 | 68 | 1010.7 |
| 20260506035005 | 16 | 236 | 3.2 | 24.1 | 0.00 | 0.00 | 0.00 | 68 | 1010.8 |
| 20260506034512 | 16 | 227 | 4.8 | 24.1 | 0.00 | 0.00 | 0.00 | 68 | 1010.8 |
| 20260506034004 | 16 | 214 | 4.8 | 16.1 | 0.00 | 0.00 | 0.00 | 68 | 1010.7 |
| 20260506033504 | 16 | 190 | 6.4 | 19.3 | 0.00 | 0.00 | 0.00 | 68 | 1010.5 |
| 20260506033017 | 16 | 184 | 4.8 | 19.3 | 0.00 | 0.00 | 0.00 | 68 | 1010.6 |
| 20260506032504 | 16 | 188 | 6.4 | 19.3 | 0.00 | 0.00 | 0.00 | 68 | 1010.6 |
| 20260506032010 | 15 | 237 | 6.4 | 19.3 | 0.00 | 0.00 | 0.00 | 69 | 1010.4 |
| 20260506031520 | 15 | 236 | 3.2 | 19.3 | 0.00 | 0.00 | 0.00 | 69 | 1010.5 |
| 20260506031008 | 15 | 224 | 4.8 | 12.9 | 0.00 | 0.00 | 0.00 | 69 | 1010.5 |
| 20260506030512 | 15 | 307 | 3.2 | 12.9 | 0.00 | 0.00 | 0.00 | 69 | 1010.5 |
| 20260506030023 | 15 | 244 | 4.8 | 12.9 | 0.00 | 0.00 | 0.00 | 68 | 1010.5 |
| 20260506025511 | 15 | 224 | 4.8 | 12.9 | 0.00 | 0.00 | 0.00 | 69 | 1010.5 |
| 20260506025010 | 15 | 229 | 4.8 | 12.9 | 0.00 | 0.00 | 0.00 | 68 | 1010.6 |
| 20260506024531 | 15 | 191 | 4.8 | 16.1 | 0.00 | 0.00 | 0.00 | 68 | 1010.4 |
| 20260506024015 | 15 | 205 | 4.8 | 16.1 | 0.00 | 0.00 | 0.00 | 68 | 1010.5 |
| 20260506023504 | 15 | 226 | 6.4 | 12.9 | 0.00 | 0.00 | 0.00 | 68 | 1010.5 |
| 20260506023018 | 15 | 189 | 4.8 | 11.3 | 0.00 | 0.00 | 0.00 | 68 | 1010.5 |
| 20260506022506 | 15 | 215 | 4.8 | 11.3 | 0.00 | 0.00 | 0.00 | 68 | 1010.5 |
| 20260506022008 | 15 | 192 | 4.8 | 11.3 | 0.00 | 0.00 | 0.00 | 68 | 1010.4 |
| 20260506021531 | 15 | 284 | 4.8 | 12.9 | 0.00 | 0.00 | 0.00 | 68 | 1010.4 |
| 20260506021011 | 15 | 232 | 4.8 | 12.9 | 0.00 | 0.00 | 0.00 | 68 | 1010.6 |
| 20260506020508 | 15 | 199 | 6.4 | 11.3 | 0.00 | 0.00 | 0.00 | 68 | 1010.4 |
| 20260506020027 | 15 | 208 | 3.2 | 19.3 | 0.00 | 0.00 | 0.00 | 67 | 1010.3 |
| 20260506015507 | 16 | 250 | 6.4 | 19.3 | 0.00 | 0.00 | 0.00 | 67 | 1010.4 |
| 20260506015007 | 16 | 269 | 4.8 | 19.3 | 0.00 | 0.00 | 0.00 | 66 | 1010.4 |
| 20260506014525 | 16 | 167 | 3.2 | 16.1 | 0.00 | 0.00 | 0.00 | 66 | 1010.2 |
| 20260506014008 | 16 | 178 | 6.4 | 16.1 | 0.00 | 0.00 | 0.00 | 65 | 1010.4 |
| 20260506013511 | 16 | 185 | 4.8 | 11.3 | 0.00 | 0.00 | 0.00 | 65 | 1010.2 |
| 20260506013031 | 16 | 242 | 4.8 | 11.3 | 0.00 | 0.00 | 0.00 | 64 | 1010.2 |
| 20260506012503 | 16 | 184 | 4.8 | 12.9 | 0.00 | 0.00 | 0.00 | 64 | 1010.0 |
| 20260506012008 | 16 | 202 | 4.8 | 14.5 | 0.00 | 0.00 | 0.00 | 64 | 1010.0 |
| 20260506011516 | 16 | 204 | 3.2 | 20.9 | 0.00 | 0.00 | 0.00 | 64 | 1010.1 |
| 20260506011004 | 16 | 61 | 6.4 | 20.9 | 0.00 | 0.00 | 0.00 | 64 | 1010.0 |
| 20260506010507 | 16 | 205 | 4.8 | 19.3 | 0.00 | 0.00 | 0.00 | 64 | 1009.9 |
| 20260506010020 | 16 | 209 | 4.8 | 14.5 | 0.00 | 0.00 | 0.00 | 64 | 1009.9 |
| 20260506005508 | 16 | 146 | 4.8 | 11.3 | 0.00 | 0.00 | 0.00 | 64 | 1009.8 |
| 20260506005007 | 16 | 234 | 3.2 | 9.7 | 0.00 | 0.00 | 0.00 | 64 | 1009.9 |
| 20260506004527 | 16 | 257 | 3.2 | 19.3 | 0.00 | 0.00 | 0.00 | 63 | 1009.8 |
| 20260506004013 | 17 | 206 | 4.8 | 16.1 | 0.00 | 0.00 | 0.00 | 63 | 1009.8 |
| 20260506003512 | 17 | 236 | 4.8 | 14.5 | 0.00 | 0.00 | 0.00 | 63 | 1009.6 |
| 20260506003026 | 17 | 165 | 4.8 | 11.3 | 0.00 | 0.00 | 0.00 | 62 | 1009.7 |
| 20260506002511 | 17 | 191 | 3.2 | 14.5 | 0.00 | 0.00 | 0.00 | 62 | 1009.6 |
| 20260506002010 | 17 | 246 | 4.8 | 14.5 | 0.00 | 0.00 | 0.00 | 61 | 1009.5 |
| 20260506001513 | 17 | 190 | 3.2 | 9.7 | 0.00 | 0.00 | 0.00 | 60 | 1009.4 |
| 20260506001004 | 17 | 190 | 3.2 | 14.5 | 0.00 | 0.00 | 0.00 | 60 | 1009.3 |
| 20260506000507 | 18 | 239 | 4.8 | 14.5 | 0.00 | 0.00 | 0.00 | 59 | 1009.3 |
| 20260506000025 | 18 | 242 | 4.8 | 9.7 | 0.00 | 0.00 | 0.00 | 58 | 1009.1 |
| 20260505235508 | 18 | 247 | 4.8 | 14.5 | 0.00 | 0.00 | 0.00 | 58 | 1009.0 |
| 20260505235006 | 18 | 228 | 4.8 | 12.9 | 0.00 | 0.00 | 0.00 | 58 | 1009.1 |
| 20260505234525 | 18 | 263 | 3.2 | 17.7 | 0.00 | 0.00 | 0.00 | 57 | 1008.9 |
| 20260505234008 | 18 | 261 | 3.2 | 17.7 | 0.00 | 0.00 | 0.00 | 57 | 1008.9 |
| 20260505233514 | 19 | 257 | 4.8 | 17.7 | 0.00 | 0.00 | 0.00 | 56 | 1008.9 |
| 20260505233024 | 19 | 225 | 4.8 | 11.3 | 0.00 | 0.00 | 0.00 | 55 | 1008.8 |
| 20260505232512 | 19 | 191 | 4.8 | 11.3 | 0.00 | 0.00 | 0.00 | 54 | 1008.6 |
| 20260505232013 | 20 | 263 | 3.2 | 9.7 | 0.00 | 0.00 | 0.00 | 53 | 1008.6 |